Startpagina
METAR-TAF:

METAR-TAF

Vliegvelden :

Luchthaven Libreville Internationaal

Libreville, Gabon

breedte: 00-27N, lengte: 009-25E, hoogte: 12 m

Actueel weer

Dit bericht is 39 minuten geleden gemaakt, om 15:30 UTC
Wind 7 kt uit het zuidwesten
Temperatuur 27°C
Vochtigheid 84%
Druk 1013 hPa
Zicht 10 km of meer
Weinig wolken op 1300 ft

METAR: FOOL 161530Z 23007KT 9999 FEW013 27/24 Q1013 NOSIG

Tijdstip: 17:09 (16:09 UTC)

Verwachting

Dit bericht is 5 uur en het 9 minuten geleden gemaakt, om 11:00 UTC
Verwachting geldig van 16 om 12 UTC tot 17 om 18 UTC
Wind 7 kt uit het zuiden
Zicht 10 km of meer
Verspreide wolken op 1300 ft
Gebroken wolken op 3000 ft

TAF: FOOL 161100Z 1612/1718 18007KT 9999 SCT013 BKN030

Waarnemingen en weersverwachtingen van meer dan 4000 vliegvelden (METAR en TAF).

De beschikbare stations zijn de gele en rode punten op de kaart.

Ga met uw muis naar het station om de naam te zien.

Klik dan om waarnemingen en weersverwachtingen te zien.

kaart wijzigen: klik op de groene knoppen met een zwart kruis om in te zoomen, op de groene knop met een streepje om uit te zoomen of op de groene pijlen voor aangrenzende kaarten.


METAR-TAF: